Flight Track Log - Related Links

Times and Time Zones

All times are in EDT time to prevent confusion due to time zone crossing. See the SWA419 flight status page for this flight to view local times or setup timezone preferences in your user account.

Time Position Orientation Groundspeed Altitude Reporting Facility
EDT Latitude Longitude Course Direction KTS MPH feet Rate Location/Type
Thu 02:19:37 PM 39.1661 -76.7669 299° West 259 298 3,600  Level Washington Center
Thu 02:20:34 PM 39.1881 -76.8583 287° West 284 327 7,300 3,846 Climbing Washington Center
Thu 02:21:34 PM 39.2119 -76.9550 288° West 291 335 11,100 3,024 Climbing Washington Center
Thu 02:22:37 PM 39.2167 -77.1000 272° West 359 413 13,500 2,505 Climbing Potomac TRACON
Thu 02:23:00 PM 39.0571 -77.2649 211° Southwest  Level FlightAware Approximate
Thu 02:24:36 PM 39.0831 -77.2683 224° Southwest 353 406 18,700  Level Washington Center
Thu 02:25:36 PM 39.0006 -77.3597 221° Southwest 371 427 21,100 2,186 Climbing Washington Center
Thu 02:26:34 PM 38.9711 -77.5086 256° West 386 444 23,000 1,866 Climbing Washington Center
Thu 02:27:35 PM 38.9458 -77.6575 258° West 420 483 24,800 1,983 Climbing Washington Center
Thu 02:28:35 PM 38.9178 -77.8275 258° West 437 503 27,000 1,884 Climbing Washington Center
Thu 02:29:36 PM 38.8917 -77.9892 258° West 455 524 28,600 1,664 Climbing Washington Center
Thu 02:30:34 PM 38.8656 -78.1458 258° West 455 524 30,300 2,034 Climbing Washington Center
Thu 02:31:34 PM 38.8536 -78.3081 265° West 461 531 32,600 1,785 Climbing Washington Center
Thu 02:32:35 PM 38.8497 -78.4678 268° West 461 531 33,900 694 Climbing Washington Center
Thu 02:33:35 PM 38.8500 -78.6303 270° West 461 531 34,000 50 Climbing Washington Center
Thu 02:34:36 PM 38.8439 -78.7900 267° West 461 531 34,000 149 Level Washington Center
Thu 02:35:36 PM 38.8206 -78.9517 260° West 461 531 34,300 966 Climbing Washington Center
Thu 02:36:34 PM 38.7953 -79.1050 258° West 461 531 35,900 1,576 Climbing Washington Center
Thu 02:37:34 PM 38.7786 -79.2481 262° West 456 525 37,400 1,050 Climbing Washington Center
Thu 02:38:34 PM 38.7506 -79.4142 258° West 450 518 38,000 298 Climbing Washington Center
Thu 02:39:35 PM 38.7269 -79.5647 259° West 444 511 38,000  Level Washington Center
Thu 02:40:35 PM 38.7031 -79.7153 259° West 444 511 38,000  Level Washington Center
Thu 02:41:36 PM 38.6792 -79.8600 258° West 438 504 38,000  Level Washington Center
Thu 02:43:15 PM 38.6361 -80.1006 257° West 423 487 38,000  Level Indianapolis Center
Thu 02:44:17 PM 38.6117 -80.2461 258° West 419 482 38,000  Level Indianapolis Center
Thu 02:45:19 PM 38.5897 -80.3825 258° West 412 474 38,000  Level Indianapolis Center
Thu 02:46:21 PM 38.5644 -80.5367 258° West 420 483 38,000  Level Indianapolis Center
Thu 02:47:23 PM 38.5397 -80.6828 258° West 421 484 38,000  Level Indianapolis Center
Thu 02:48:25 PM 38.5092 -80.8300 255° West 427 491 38,000  Level Indianapolis Center
Thu 02:49:27 PM 38.4389 -80.9903 241° Southwest 430 495 38,000  Level Indianapolis Center
Thu 02:50:29 PM 38.3803 -81.1239 241° Southwest 429 494 38,000  Level Indianapolis Center
Thu 02:51:31 PM 38.3231 -81.2569 241° Southwest 426 490 38,000  Level Indianapolis Center
Thu 02:52:33 PM 38.2644 -81.3908 241° Southwest 427 491 38,000  Level Indianapolis Center
Thu 02:53:35 PM 38.2061 -81.5231 241° Southwest 426 490 38,000  Level Indianapolis Center
Thu 02:54:37 PM 38.1492 -81.6556 241° Southwest 426 490 38,000  Level Indianapolis Center
Thu 02:55:39 PM 38.0897 -81.7869 240° Southwest 426 490 38,000  Level Indianapolis Center
Thu 02:56:41 PM 38.0319 -81.9203 241° Southwest 429 494 38,000  Level Indianapolis Center
Thu 02:57:43 PM 37.9614 -82.0786 241° Southwest 431 496 38,000  Level Indianapolis Center
Thu 02:58:45 PM 37.9019 -82.2114 240° Southwest 432 497 38,000  Level Indianapolis Center
Thu 02:59:47 PM 37.8436 -82.3447 241° Southwest 433 498 38,000  Level Indianapolis Center
Thu 03:00:49 PM 37.7836 -82.4786 240° Southwest 437 503 38,000  Level Indianapolis Center
Thu 03:01:52 PM 37.7239 -82.6108 240° Southwest 436 502 38,000  Level Indianapolis Center
Thu 03:02:54 PM 37.6533 -82.7653 240° Southwest 436 502 38,000  Level Indianapolis Center
Thu 03:03:56 PM 37.5925 -82.8994 240° Southwest 441 507 38,000  Level Indianapolis Center
Thu 03:04:58 PM 37.5325 -83.0311 240° Southwest 435 501 38,000  Level Indianapolis Center
Thu 03:06:00 PM 37.4717 -83.1644 240° Southwest 439 505 38,000  Level Indianapolis Center
Thu 03:07:02 PM 37.4106 -83.2953 240° Southwest 436 502 38,000  Level Indianapolis Center
Thu 03:08:04 PM 37.3403 -83.4483 240° Southwest 434 499 38,000  Level Indianapolis Center
Thu 03:09:06 PM 37.2806 -83.5753 239° Southwest 425 489 38,000  Level Indianapolis Center
Thu 03:10:08 PM 37.2214 -83.7039 240° Southwest 426 490 38,000  Level Indianapolis Center
Thu 03:11:10 PM 37.1611 -83.8317 239° Southwest 427 491 38,000  Level Indianapolis Center
Thu 03:12:12 PM 37.1006 -83.9592 239° Southwest 428 493 38,000  Level Indianapolis Center
Thu 03:13:14 PM 37.0300 -84.1083 239° Southwest 426 490 38,000  Level Indianapolis Center
Thu 03:14:17 PM 36.9706 -84.2372 240° Southwest 428 493 38,000  Level Indianapolis Center
Thu 03:15:19 PM 36.9086 -84.3642 239° Southwest 428 493 38,000  Level Indianapolis Center
Thu 03:16:21 PM 36.8483 -84.4928 240° Southwest 428 493 38,000  Level Indianapolis Center
Thu 03:17:23 PM 36.7883 -84.6183 239° Southwest 427 491 38,000  Level Indianapolis Center
Thu 03:18:25 PM 36.7147 -84.7703 239° Southwest 427 491 38,000  Level Indianapolis Center
Thu 03:19:27 PM 36.6536 -84.8972 239° Southwest 430 495 38,000  Level Indianapolis Center
Thu 03:20:29 PM 36.5925 -85.0214 239° Southwest 424 488 38,000  Level Indianapolis Center
Thu 03:21:31 PM 36.5303 -85.1469 238° Southwest 427 491 38,000  Level Indianapolis Center
Thu 03:22:33 PM 36.4689 -85.2728 239° Southwest 428 493 38,000  Level Indianapolis Center
Thu 03:23:35 PM 36.3939 -85.4242 238° Southwest 428 493 38,000  Level Indianapolis Center
Thu 03:24:37 PM 36.3331 -85.5497 239° Southwest 427 491 38,000  Level Indianapolis Center
Thu 03:24:56 PM 36.3167 -85.5792 235° Southwest 433 498 38,000  Level Memphis Center
Thu 03:25:56 PM 36.2567 -85.7036 239° Southwest 433 498 38,000  Level Memphis Center
Thu 03:26:56 PM 36.1925 -85.8283 238° Southwest 433 498 38,000  Level Memphis Center
Thu 03:27:56 PM 36.1322 -85.9497 238° Southwest 433 498 38,000  Level Memphis Center
Thu 03:28:56 PM 36.0681 -86.0764 238° Southwest 428 493 38,000  Level Memphis Center
Thu 03:29:56 PM 36.0075 -86.1978 238° Southwest 422 486 38,000  Level Memphis Center
Thu 03:30:56 PM 35.9389 -86.3344 238° Southwest 427 491 38,000  Level Memphis Center
Thu 03:31:56 PM 35.8742 -86.4581 237° Southwest 427 491 38,000  Level Memphis Center
Thu 03:32:56 PM 35.8133 -86.5811 239° Southwest 427 491 38,000  Level Memphis Center
Thu 03:33:56 PM 35.7483 -86.7069 238° Southwest 427 491 38,000  Level Memphis Center
Thu 03:34:56 PM 35.6850 -86.8300 238° Southwest 427 491 38,000  Level Memphis Center
Thu 03:35:56 PM 35.6239 -86.9525 238° Southwest 427 491 38,000  Level Memphis Center
Thu 03:36:56 PM 35.5664 -87.0647 238° Southwest 427 491 38,000  Level Memphis Center
Thu 03:37:56 PM 35.5031 -87.1894 238° Southwest 427 491 38,000  Level Memphis Center
Thu 03:38:56 PM 35.4372 -87.3119 237° Southwest 427 491 38,000  Level Memphis Center
Thu 03:39:56 PM 35.3775 -87.4311 238° Southwest 427 491 38,000  Level Memphis Center
Thu 03:40:56 PM 35.3156 -87.5531 238° Southwest 427 491 38,000  Level Memphis Center
Thu 03:41:56 PM 35.2517 -87.6744 237° Southwest 427 491 38,000  Level Memphis Center
Thu 03:42:56 PM 35.1872 -87.7961 237° Southwest 427 491 38,000  Level Memphis Center
Thu 03:43:56 PM 35.1208 -87.9175 236° Southwest 432 497 38,000  Level Memphis Center
Thu 03:44:56 PM 35.0567 -88.0386 237° Southwest 427 491 38,000  Level Memphis Center
Thu 03:45:56 PM 34.9900 -88.1594 236° Southwest 432 497 38,000  Level Memphis Center
Thu 03:46:56 PM 34.9192 -88.3006 239° Southwest 447 514 38,000  Level Memphis Center
Thu 03:47:56 PM 34.8525 -88.4236 237° Southwest 447 514 38,000  Level Memphis Center
Thu 03:48:56 PM 34.7853 -88.5417 235° Southwest 435 501 38,000  Level Memphis Center
Thu 03:49:56 PM 34.7203 -88.6642 237° Southwest 435 501 38,000  Level Memphis Center
Thu 03:50:56 PM 34.6511 -88.7842 235° Southwest 435 501 38,000  Level Memphis Center
Thu 03:51:56 PM 34.5858 -88.9067 237° Southwest 442 509 38,000  Level Memphis Center
Thu 03:52:56 PM 34.5183 -89.0286 236° Southwest 447 514 38,000  Level Memphis Center
Thu 03:53:56 PM 34.4506 -89.1533 237° Southwest 442 509 38,000  Level Memphis Center
Thu 03:54:56 PM 34.3892 -89.2647 236° Southwest 447 514 38,000  Level Memphis Center
Thu 03:55:56 PM 34.3211 -89.3889 236° Southwest 447 514 38,000  Level Memphis Center
Thu 03:56:56 PM 34.2533 -89.5103 236° Southwest 442 509 38,000  Level Memphis Center
Thu 03:57:56 PM 34.1853 -89.6339 236° Southwest 449 517 38,000  Level Memphis Center
Thu 03:58:56 PM 34.1150 -89.7575 236° Southwest 444 511 38,000  Level Memphis Center
Thu 03:59:56 PM 34.0425 -89.8933 237° Southwest 444 511 38,000  Level Memphis Center
Thu 04:00:56 PM 33.9739 -90.0139 236° Southwest 443 510 38,000  Level Memphis Center
Thu 04:01:56 PM 33.9075 -90.1344 236° Southwest 443 510 38,000  Level Memphis Center
Thu 04:02:56 PM 33.8386 -90.2522 235° Southwest 443 510 38,000  Level Memphis Center
Thu 04:03:56 PM 33.7825 -90.3647 239° Southwest 443 510 38,000  Level Memphis Center
Thu 04:04:56 PM 33.7136 -90.4822 235° Southwest 443 510 38,000  Level Memphis Center
Thu 04:05:56 PM 33.6381 -90.6167 236° Southwest 443 510 38,000  Level Memphis Center
Thu 04:06:56 PM 33.5689 -90.7361 235° Southwest 443 510 38,000  Level Memphis Center
Thu 04:07:56 PM 33.4997 -90.8556 235° Southwest 443 510 38,000  Level Memphis Center
Thu 04:08:56 PM 33.4325 -90.9719 235° Southwest 443 510 38,000  Level Memphis Center
Thu 04:09:56 PM 33.3608 -91.0933 235° Southwest 448 516 38,000 663 Level Memphis Center
Thu 04:11:39 PM 33.2458 -91.2939 236° Southwest 432 497 39,800 736 Climbing Fort Worth Center
Thu 04:12:39 PM 33.1808 -91.4197 238° Southwest 437 503 40,000 100 Climbing Fort Worth Center
Thu 04:13:39 PM 33.1089 -91.5314 232° Southwest 437 503 40,000  Level Fort Worth Center
Thu 04:14:39 PM 33.0392 -91.6475 234° Southwest 442 509 40,000  Level Fort Worth Center
Thu 04:15:39 PM 32.9717 -91.7656 236° Southwest 442 509 40,000  Level Fort Worth Center
Thu 04:16:39 PM 32.9056 -91.8739 234° Southwest 442 509 40,000  Level Fort Worth Center
Thu 04:17:39 PM 32.8394 -91.9892 236° Southwest 442 509 40,000  Level Fort Worth Center
Thu 04:18:39 PM 32.7714 -92.1044 235° Southwest 442 509 40,000  Level Fort Worth Center
Thu 04:19:39 PM 32.7011 -92.2219 235° Southwest 442 509 40,000  Level Fort Worth Center
Thu 04:20:39 PM 32.6231 -92.3522 235° Southwest 449 517 40,000  Level Fort Worth Center
Thu 04:21:39 PM 32.5683 -92.4467 236° Southwest 449 517 40,000  Level Fort Worth Center
Thu 04:22:39 PM 32.4958 -92.5639 234° Southwest 429 494 40,000  Level Fort Worth Center
Thu 04:23:39 PM 32.4269 -92.6758 234° Southwest 424 488 40,000  Level Fort Worth Center
Thu 04:24:39 PM 32.3506 -92.8075 236° Southwest 432 497 40,000  Level Fort Worth Center
Thu 04:25:39 PM 32.2875 -92.9139 235° Southwest 437 503 40,000  Level Fort Worth Center
Thu 04:26:39 PM 32.2206 -93.0278 235° Southwest 442 509 40,000  Level Fort Worth Center
Thu 04:27:39 PM 32.1511 -93.1367 233° Southwest 437 503 40,000  Level Fort Worth Center
Thu 04:28:39 PM 32.0819 -93.2503 234° Southwest 437 503 40,000  Level Fort Worth Center
Thu 04:29:39 PM 32.0125 -93.3636 234° Southwest 437 503 40,000  Level Fort Worth Center
Thu 04:30:39 PM 31.9453 -93.4767 235° Southwest 437 503 40,000  Level Fort Worth Center
Thu 04:31:40 PM 31.8736 -93.5900 233° Southwest 437 503 40,000  Level Fort Worth Center
Thu 04:32:39 PM 31.8036 -93.6978 233° Southwest 437 503 40,000  Level Fort Worth Center
Thu 04:33:39 PM 31.7381 -93.8081 235° Southwest 431 496 40,000  Level Fort Worth Center
Thu 04:35:12 PM 31.6294 -93.9764 233° Southwest 417 480 40,000  Level Houston Center
Thu 04:36:14 PM 31.5628 -94.0842 234° Southwest 410 472 40,000  Level Houston Center
Thu 04:37:16 PM 31.4942 -94.1911 233° Southwest 409 471 40,000  Level Houston Center
Thu 04:38:18 PM 31.4133 -94.3206 234° Southwest 409 471 40,000  Level Houston Center
Thu 04:39:20 PM 31.3458 -94.4275 234° Southwest 408 470 40,000  Level Houston Center
Thu 04:41:00 PM 31.2252 -94.5999 233° Southwest  Level FlightAware Approximate
Thu 04:44:30 PM 30.9586 -94.9375 223° Southwest 412 474 40,000  Level Houston Center
Thu 04:46:00 PM 30.8249 -95.0615 219° Southwest  Level FlightAware Approximate
Thu 04:46:35 PM 30.7894 -95.1178 222° Southwest 410 472 40,000  Level Houston Center
Thu 04:47:37 PM 30.6883 -95.2258 223° Southwest 413 475 40,000  Level Houston Center
Thu 04:48:00 PM 30.6545 -95.2464 223° Southwest  Level FlightAware Approximate
Thu 04:48:39 PM 30.6033 -95.3158 222° Southwest 412 474 40,000  Level Houston Center
Thu 04:49:00 PM 30.5706 -95.3360 223° Southwest  Level FlightAware Approximate
Thu 04:49:41 PM 30.5200 -95.4056 223° Southwest 409 471 40,000  Level Houston Center
Thu 04:50:43 PM 30.4400 -95.4892 222° Southwest 412 474 40,000  Level Houston Center
Thu 04:51:45 PM 30.3556 -95.5811 223° Southwest 417 480 40,000  Level Houston Center
Thu 04:52:47 PM 30.2531 -95.6872 222° Southwest 415 478 40,000  Level Houston Center
Thu 04:53:00 PM 30.3208 -95.5959 221° Southwest  Level FlightAware Approximate
Thu 04:53:49 PM 30.1689 -95.7772 223° Southwest 415 478 40,000  Level Houston Center
Thu 04:54:00 PM 30.2365 -95.6847 222° Southwest  Level FlightAware Approximate
Thu 04:54:51 PM 30.0836 -95.8650 222° Southwest 414 476 40,000  Level Houston Center
Thu 04:55:53 PM 30.0000 -95.9522 222° Southwest 410 472 40,000  Level Houston Center
Thu 04:56:55 PM 29.9164 -96.0378 222° Southwest 408 470 40,000  Level Houston Center
Thu 04:57:57 PM 29.8172 -96.1422 222° Southwest 404 465 40,000  Level Houston Center
Thu 04:58:59 PM 29.7850 -96.2544 252° West 391 450 40,000 -871 Level Houston Center
Thu 05:00:01 PM 29.7939 -96.3750 275° West 383 441 38,200 -2,064 Descending Houston Center
Thu 05:01:04 PM 29.8014 -96.4936 274° West 374 430 35,700 -2,208 Descending Houston Center
Thu 05:02:06 PM 29.8114 -96.6172 275° West 387 445 33,600 -2,226 Descending Houston Center
Thu 05:03:08 PM 29.8219 -96.7664 275° West 393 452 31,100 -2,177 Descending Houston Center
Thu 05:04:10 PM 29.8314 -96.8886 275° West 387 445 29,100 -1,935 Descending Houston Center
Thu 05:05:12 PM 29.8392 -97.0089 274° West 382 440 27,100 -1,355 Descending Houston Center
Thu 05:06:14 PM 29.8486 -97.1339 275° West 395 455 26,300 -1,016 Descending Houston Center
Thu 05:07:16 PM 29.8592 -97.2711 275° West 426 490 25,000 -2,177 Descending Houston Center
Thu 05:08:18 PM 29.8686 -97.4306 274° West 420 483 21,800 -2,758 Descending Houston Center
Thu 05:09:20 PM 29.8778 -97.5661 274° West 404 465 19,300 -2,291 Descending Houston Center
Thu 05:10:08 PM 29.8836 -97.6611 274° West 387 445 17,600 -2,628 Descending Houston Center
Thu 05:11:21 PM 29.8939 -97.8117 275° West 379 436 14,000 -2,165 Descending Houston Center
Thu 05:12:21 PM 29.8728 -97.9203 257° West 346 398 12,800 -942 Descending Houston Center
Thu 05:13:22 PM 29.8350 -98.0069 243° Southwest 287 330 12,100 -1,023 Descending Houston Center
Thu 05:14:30 PM 29.7964 -98.1006 245° Southwest 276 318 10,600 -1,623 Descending Houston Center
Thu 05:15:24 PM 29.7667 -98.1744 245° Southwest 272 313 8,800 -1,774 Descending Houston Center
Thu 05:16:25 PM 29.7306 -98.2583 244° Southwest 291 335 7,200 -1,377 Descending Houston Center
Thu 05:17:26 PM 29.6800 -98.3247 229° Southwest 285 328 6,000 -1,041 Descending Houston Center
Thu 05:18:26 PM 29.6067 -98.3264 181° South 257 296 5,100 -893 Descending Houston Center
Thu 05:19:27 PM 29.5358 -98.3328 184° South 248 285 4,200 -787 Descending Houston Center
Thu 05:20:28 PM 29.4731 -98.3572 199° South 230 265 3,500 -787 Descending Houston Center
Thu 05:21:29 PM 29.4747 -98.4000 273° West 118 136 2,600 -1,026 Descending Houston Center
Thu 05:21:44 PM 29.4822 -98.4081 317° Northwest 133 153 2,200 -885 Descending Houston Center
Thu 05:22:30 PM 29.4983 -98.4283 312° West 119 137 1,700 -677 Descending Houston Center
Thu 05:22:46 PM 29.5067 -98.4386 313° West 127 146 1,500 -692 Descending Houston Center
Thu 05:23:48 PM 29.5317 -98.4692 313° West 130 150 800 -677 Descending Houston Center

Login

Don't have an account? Register now (free) for customized features, flight alerts, and more!